PWSweather.com
Personal Weather Stations
Station Observations
IMAZOWIE6
WarszawaPL

WarszawaPL

Lat: 52.27957, Lon: 21.05489

Elevation: 100

Station Type: WS1080

http://stacjapogody.waw.pl/

High Low Average
Temperature 39.4°F4.1°C 31.8°F-0.1°C 35.7°F2.1°C
Dew Point -168.9°F-111.6°C -169.6°F-112.0°C -169.2°F-111.8°C
Winds 4.0 mph 6.4 kmh Calm Calm 1.0 mph N1.6 kmh N
Wind Gusts 7.4 mph11.9 kmh -- 3.0 mph4.8 kmh
Humidity - - -
Pressure 29.28 in991.5 mb 28.93 in979.7 mb -
Precipitation 0.00 in0.0 mm - -
Hour Temp Dew Point Humidity Winds Wind Gusts Pressure Precip Precip Rate Daily Precip Total
12:05 AM 35.6°F2.0°C -169.2°F-111.8°C - 1.4 mph N2.3 kmh N 4.0 mph6.4 kmh 29.25 in990.5 mb 0.00 in0.0 mm 0.00 in0.0 mm 0.00 in0.0 mm
12:20 AM 35.8°F2.1°C -169.2°F-111.8°C - 0.6 mph N1.0 kmh N 4.8 mph7.7 kmh 29.25 in990.5 mb 0.00 in0.0 mm 0.00 in0.0 mm 0.00 in0.0 mm
12:35 AM 35.2°F1.8°C -169.3°F-111.8°C - 2.8 mph N4.5 kmh N 5.4 mph8.7 kmh 29.25 in990.5 mb 0.00 in0.0 mm 0.00 in0.0 mm 0.00 in0.0 mm
12:50 AM 35.4°F1.9°C -169.3°F-111.8°C - 0.6 mph N1.0 kmh N 3.4 mph5.5 kmh 29.25 in990.5 mb 0.00 in0.0 mm 0.00 in0.0 mm 0.00 in0.0 mm
01:05 AM 35.6°F2.0°C -169.2°F-111.8°C - 1.4 mph N2.3 kmh N 4.0 mph6.4 kmh 29.26 in990.9 mb 0.00 in0.0 mm 0.00 in0.0 mm 0.00 in0.0 mm
01:20 AM 35.6°F2.0°C -169.2°F-111.8°C - 0.6 mph N1.0 kmh N 3.4 mph5.5 kmh 29.26 in990.9 mb 0.00 in0.0 mm 0.00 in0.0 mm 0.00 in0.0 mm
01:35 AM 35.6°F2.0°C -169.2°F-111.8°C - 0.6 mph N1.0 kmh N 3.4 mph5.5 kmh 29.26 in990.9 mb 0.00 in0.0 mm 0.00 in0.0 mm 0.00 in0.0 mm
01:50 AM 35.6°F2.0°C -169.2°F-111.8°C - Calm Calm 1.4 mph2.3 kmh 29.27 in991.2 mb 0.00 in0.0 mm 0.00 in0.0 mm 0.00 in0.0 mm
02:05 AM 35.8°F2.1°C -169.2°F-111.8°C - Calm Calm 1.4 mph2.3 kmh 29.27 in991.2 mb 0.00 in0.0 mm 0.00 in0.0 mm 0.00 in0.0 mm
02:20 AM 35.8°F2.1°C -169.2°F-111.8°C - Calm Calm 2.8 mph4.5 kmh 29.27 in991.2 mb 0.00 in0.0 mm 0.00 in0.0 mm 0.00 in0.0 mm
02:35 AM 36.0°F2.2°C -169.2°F-111.8°C - Calm Calm -- 29.27 in991.2 mb 0.00 in0.0 mm 0.00 in0.0 mm 0.00 in0.0 mm
02:50 AM 36.0°F2.2°C -169.2°F-111.8°C - Calm Calm 2.0 mph3.2 kmh 29.27 in991.2 mb 0.00 in0.0 mm 0.00 in0.0 mm 0.00 in0.0 mm
03:05 AM 35.8°F2.1°C -169.2°F-111.8°C - Calm Calm -- 29.28 in991.5 mb 0.00 in0.0 mm 0.00 in0.0 mm 0.00 in0.0 mm
03:20 AM 35.8°F2.1°C -169.2°F-111.8°C - Calm Calm 0.6 mph1.0 kmh 29.28 in991.5 mb 0.00 in0.0 mm 0.00 in0.0 mm 0.00 in0.0 mm
03:35 AM 35.6°F2.0°C -169.2°F-111.8°C - 0.6 mph N1.0 kmh N 4.0 mph6.4 kmh 29.28 in991.5 mb 0.00 in0.0 mm 0.00 in0.0 mm 0.00 in0.0 mm
03:50 AM 35.8°F2.1°C -169.2°F-111.8°C - Calm Calm 2.0 mph3.2 kmh 29.27 in991.2 mb 0.00 in0.0 mm 0.00 in0.0 mm 0.00 in0.0 mm
04:05 AM 35.8°F2.1°C -169.2°F-111.8°C - 1.4 mph N2.3 kmh N 4.0 mph6.4 kmh 29.27 in991.2 mb 0.00 in0.0 mm 0.00 in0.0 mm 0.00 in0.0 mm
04:20 AM 35.8°F2.1°C -169.2°F-111.8°C - 1.4 mph N2.3 kmh N 4.8 mph7.7 kmh 29.27 in991.2 mb 0.00 in0.0 mm 0.00 in0.0 mm 0.00 in0.0 mm
04:35 AM 35.6°F2.0°C -169.2°F-111.8°C - Calm Calm 0.6 mph1.0 kmh 29.28 in991.5 mb 0.00 in0.0 mm 0.00 in0.0 mm 0.00 in0.0 mm
04:50 AM 35.6°F2.0°C -169.2°F-111.8°C - Calm Calm 2.0 mph3.2 kmh 29.28 in991.5 mb 0.00 in0.0 mm 0.00 in0.0 mm 0.00 in0.0 mm
05:05 AM 35.6°F2.0°C -169.2°F-111.8°C - 0.6 mph N1.0 kmh N 3.4 mph5.5 kmh 29.28 in991.5 mb 0.00 in0.0 mm 0.00 in0.0 mm 0.00 in0.0 mm
05:20 AM 35.8°F2.1°C -169.2°F-111.8°C - 0.6 mph N1.0 kmh N 4.8 mph7.7 kmh 29.27 in991.2 mb 0.00 in0.0 mm 0.00 in0.0 mm 0.00 in0.0 mm
05:35 AM 35.8°F2.1°C -169.2°F-111.8°C - 2.0 mph N3.2 kmh N 5.4 mph8.7 kmh 29.28 in991.5 mb 0.00 in0.0 mm 0.00 in0.0 mm 0.00 in0.0 mm
05:50 AM 36.0°F2.2°C -169.2°F-111.8°C - Calm Calm 3.4 mph5.5 kmh 29.28 in991.5 mb 0.00 in0.0 mm 0.00 in0.0 mm 0.00 in0.0 mm
06:05 AM 35.8°F2.1°C -169.2°F-111.8°C - 1.4 mph N2.3 kmh N 4.0 mph6.4 kmh 29.28 in991.5 mb 0.00 in0.0 mm 0.00 in0.0 mm 0.00 in0.0 mm
06:20 AM 35.6°F2.0°C -169.2°F-111.8°C - 0.6 mph N1.0 kmh N 4.0 mph6.4 kmh 29.27 in991.2 mb 0.00 in0.0 mm 0.00 in0.0 mm 0.00 in0.0 mm
06:35 AM 35.8°F2.1°C -169.2°F-111.8°C - 0.6 mph N1.0 kmh N 2.8 mph4.5 kmh 29.28 in991.5 mb 0.00 in0.0 mm 0.00 in0.0 mm 0.00 in0.0 mm
06:50 AM 35.8°F2.1°C -169.2°F-111.8°C - 2.8 mph N4.5 kmh N 5.4 mph8.7 kmh 29.28 in991.5 mb 0.00 in0.0 mm 0.00 in0.0 mm 0.00 in0.0 mm
07:05 AM 35.6°F2.0°C -169.2°F-111.8°C - 2.8 mph N4.5 kmh N 6.2 mph10.0 kmh 29.28 in991.5 mb 0.00 in0.0 mm 0.00 in0.0 mm 0.00 in0.0 mm
07:20 AM 35.6°F2.0°C -169.2°F-111.8°C - 0.6 mph N1.0 kmh N 4.0 mph6.4 kmh 29.27 in991.2 mb 0.00 in0.0 mm 0.00 in0.0 mm 0.00 in0.0 mm
07:35 AM 36.0°F2.2°C -169.2°F-111.8°C - 2.8 mph N4.5 kmh N 4.0 mph6.4 kmh 29.28 in991.5 mb 0.00 in0.0 mm 0.00 in0.0 mm 0.00 in0.0 mm
07:50 AM 35.8°F2.1°C -169.2°F-111.8°C - 2.0 mph N3.2 kmh N 3.4 mph5.5 kmh 29.27 in991.2 mb 0.00 in0.0 mm 0.00 in0.0 mm 0.00 in0.0 mm
08:05 AM 36.0°F2.2°C -169.2°F-111.8°C - 2.8 mph N4.5 kmh N 4.8 mph7.7 kmh 29.27 in991.2 mb 0.00 in0.0 mm 0.00 in0.0 mm 0.00 in0.0 mm
08:20 AM 36.1°F2.3°C -169.2°F-111.8°C - Calm Calm 1.4 mph2.3 kmh 29.28 in991.5 mb 0.00 in0.0 mm 0.00 in0.0 mm 0.00 in0.0 mm
08:35 AM 36.1°F2.3°C -169.2°F-111.8°C - 0.6 mph N1.0 kmh N 4.0 mph6.4 kmh 29.28 in991.5 mb 0.00 in0.0 mm 0.00 in0.0 mm 0.00 in0.0 mm
08:50 AM 36.5°F2.5°C -169.2°F-111.8°C - 0.6 mph N1.0 kmh N 4.0 mph6.4 kmh 29.28 in991.5 mb 0.00 in0.0 mm 0.00 in0.0 mm 0.00 in0.0 mm
09:05 AM 36.1°F2.3°C -169.2°F-111.8°C - Calm Calm 2.8 mph4.5 kmh 29.28 in991.5 mb 0.00 in0.0 mm 0.00 in0.0 mm 0.00 in0.0 mm
09:20 AM 36.5°F2.5°C -169.2°F-111.8°C - 0.6 mph N1.0 kmh N 4.0 mph6.4 kmh 29.28 in991.5 mb 0.00 in0.0 mm 0.00 in0.0 mm 0.00 in0.0 mm
09:35 AM 36.7°F2.6°C -169.1°F-111.7°C - 1.4 mph N2.3 kmh N 4.0 mph6.4 kmh 29.28 in991.5 mb 0.00 in0.0 mm 0.00 in0.0 mm 0.00 in0.0 mm
09:50 AM 37.0°F2.8°C -169.1°F-111.7°C - 1.4 mph N2.3 kmh N 6.2 mph10.0 kmh 29.27 in991.2 mb 0.00 in0.0 mm 0.00 in0.0 mm 0.00 in0.0 mm
10:05 AM 37.6°F3.1°C -169.0°F-111.7°C - Calm Calm 1.4 mph2.3 kmh 29.27 in991.2 mb 0.00 in0.0 mm 0.00 in0.0 mm 0.00 in0.0 mm
10:20 AM 37.9°F3.3°C -169.0°F-111.7°C - Calm Calm 2.8 mph4.5 kmh 29.26 in990.9 mb 0.00 in0.0 mm 0.00 in0.0 mm 0.00 in0.0 mm
10:35 AM 38.1°F3.4°C -169.0°F-111.7°C - 2.0 mph N3.2 kmh N 4.0 mph6.4 kmh 29.25 in990.5 mb 0.00 in0.0 mm 0.00 in0.0 mm 0.00 in0.0 mm
10:50 AM 37.9°F3.3°C -169.0°F-111.7°C - 0.6 mph N1.0 kmh N 2.8 mph4.5 kmh 29.25 in990.5 mb 0.00 in0.0 mm 0.00 in0.0 mm 0.00 in0.0 mm
11:05 AM 37.8°F3.2°C -169.0°F-111.7°C - 2.0 mph N3.2 kmh N 4.8 mph7.7 kmh 29.25 in990.5 mb 0.00 in0.0 mm 0.00 in0.0 mm 0.00 in0.0 mm
11:20 AM 38.1°F3.4°C -169.0°F-111.7°C - 2.0 mph N3.2 kmh N 5.4 mph8.7 kmh 29.24 in990.2 mb 0.00 in0.0 mm 0.00 in0.0 mm 0.00 in0.0 mm
11:35 AM 38.5°F3.6°C -169.0°F-111.7°C - 1.4 mph N2.3 kmh N 3.4 mph5.5 kmh 29.24 in990.2 mb 0.00 in0.0 mm 0.00 in0.0 mm 0.00 in0.0 mm
11:50 AM 39.2°F4.0°C -168.9°F-111.6°C - 2.0 mph N3.2 kmh N 4.0 mph6.4 kmh 29.22 in989.5 mb 0.00 in0.0 mm 0.00 in0.0 mm 0.00 in0.0 mm
12:05 PM 39.0°F3.9°C -168.9°F-111.6°C - 1.4 mph N2.3 kmh N 4.0 mph6.4 kmh 29.23 in989.8 mb 0.00 in0.0 mm 0.00 in0.0 mm 0.00 in0.0 mm
12:20 PM 39.4°F4.1°C -168.9°F-111.6°C - Calm Calm 1.4 mph2.3 kmh 29.22 in989.5 mb 0.00 in0.0 mm 0.00 in0.0 mm 0.00 in0.0 mm
12:35 PM 39.2°F4.0°C -168.9°F-111.6°C - 4.0 mph N6.4 kmh N 7.4 mph11.9 kmh 29.21 in989.2 mb 0.00 in0.0 mm 0.00 in0.0 mm 0.00 in0.0 mm
12:50 PM 38.5°F3.6°C -169.0°F-111.7°C - Calm Calm 2.0 mph3.2 kmh 29.20 in988.8 mb 0.00 in0.0 mm 0.00 in0.0 mm 0.00 in0.0 mm
01:05 PM 38.1°F3.4°C -169.0°F-111.7°C - 0.6 mph N1.0 kmh N 3.4 mph5.5 kmh 29.20 in988.8 mb 0.00 in0.0 mm 0.00 in0.0 mm 0.00 in0.0 mm
01:20 PM 38.3°F3.5°C -169.0°F-111.7°C - Calm Calm 2.0 mph3.2 kmh 29.20 in988.8 mb 0.00 in0.0 mm 0.00 in0.0 mm 0.00 in0.0 mm
01:35 PM 38.1°F3.4°C -169.0°F-111.7°C - Calm Calm 2.8 mph4.5 kmh 29.19 in988.5 mb 0.00 in0.0 mm 0.00 in0.0 mm 0.00 in0.0 mm
01:50 PM 37.8°F3.2°C -169.0°F-111.7°C - Calm Calm 2.8 mph4.5 kmh 29.19 in988.5 mb 0.00 in0.0 mm 0.00 in0.0 mm 0.00 in0.0 mm
02:05 PM 37.6°F3.1°C -169.0°F-111.7°C - 2.8 mph N4.5 kmh N 5.4 mph8.7 kmh 29.18 in988.1 mb 0.00 in0.0 mm 0.00 in0.0 mm 0.00 in0.0 mm
02:20 PM 37.4°F3.0°C -169.1°F-111.7°C - 1.4 mph N2.3 kmh N 5.4 mph8.7 kmh 29.18 in988.1 mb 0.00 in0.0 mm 0.00 in0.0 mm 0.00 in0.0 mm
02:35 PM 37.4°F3.0°C -169.1°F-111.7°C - 2.0 mph N3.2 kmh N 6.8 mph10.9 kmh 29.17 in987.8 mb 0.00 in0.0 mm 0.00 in0.0 mm 0.00 in0.0 mm
02:50 PM 37.0°F2.8°C -169.1°F-111.7°C - Calm Calm 2.0 mph3.2 kmh 29.16 in987.5 mb 0.00 in0.0 mm 0.00 in0.0 mm 0.00 in0.0 mm
03:05 PM 36.9°F2.7°C -169.1°F-111.7°C - Calm Calm -- 29.15 in987.1 mb 0.00 in0.0 mm 0.00 in0.0 mm 0.00 in0.0 mm
03:20 PM 36.7°F2.6°C -169.1°F-111.7°C - Calm Calm 0.6 mph1.0 kmh 29.14 in986.8 mb 0.00 in0.0 mm 0.00 in0.0 mm 0.00 in0.0 mm
03:35 PM 36.3°F2.4°C -169.2°F-111.8°C - Calm Calm 3.4 mph5.5 kmh 29.13 in986.5 mb 0.00 in0.0 mm 0.00 in0.0 mm 0.00 in0.0 mm
03:50 PM 35.8°F2.1°C -169.2°F-111.8°C - 1.4 mph N2.3 kmh N 4.0 mph6.4 kmh 29.13 in986.5 mb 0.00 in0.0 mm 0.00 in0.0 mm 0.00 in0.0 mm
04:05 PM 35.4°F1.9°C -169.3°F-111.8°C - 1.4 mph N2.3 kmh N 4.8 mph7.7 kmh 29.12 in986.1 mb 0.00 in0.0 mm 0.00 in0.0 mm 0.00 in0.0 mm
04:20 PM 34.9°F1.6°C -169.3°F-111.8°C - Calm Calm 1.4 mph2.3 kmh 29.11 in985.8 mb 0.00 in0.0 mm 0.00 in0.0 mm 0.00 in0.0 mm
04:35 PM 34.9°F1.6°C -169.3°F-111.8°C - Calm Calm 2.8 mph4.5 kmh 29.11 in985.8 mb 0.00 in0.0 mm 0.00 in0.0 mm 0.00 in0.0 mm
04:50 PM 34.7°F1.5°C -169.3°F-111.8°C - Calm Calm 2.8 mph4.5 kmh 29.09 in985.1 mb 0.00 in0.0 mm 0.00 in0.0 mm 0.00 in0.0 mm
05:05 PM 34.5°F1.4°C -169.3°F-111.8°C - Calm Calm 0.6 mph1.0 kmh 29.08 in984.8 mb 0.00 in0.0 mm 0.00 in0.0 mm 0.00 in0.0 mm
05:20 PM 34.2°F1.2°C -169.4°F-111.9°C - 0.6 mph N1.0 kmh N 4.8 mph7.7 kmh 29.08 in984.8 mb 0.00 in0.0 mm 0.00 in0.0 mm 0.00 in0.0 mm
05:35 PM 33.8°F1.0°C -169.4°F-111.9°C - 1.4 mph N2.3 kmh N 4.0 mph6.4 kmh 29.08 in984.8 mb 0.00 in0.0 mm 0.00 in0.0 mm 0.00 in0.0 mm
05:50 PM 34.0°F1.1°C -169.4°F-111.9°C - 1.4 mph N2.3 kmh N 3.4 mph5.5 kmh 29.06 in984.1 mb 0.00 in0.0 mm 0.00 in0.0 mm 0.00 in0.0 mm
06:05 PM 34.2°F1.2°C -169.4°F-111.9°C - 1.4 mph N2.3 kmh N 4.0 mph6.4 kmh 29.06 in984.1 mb 0.00 in0.0 mm 0.00 in0.0 mm 0.00 in0.0 mm
06:20 PM 34.2°F1.2°C -169.4°F-111.9°C - 2.0 mph N3.2 kmh N 5.4 mph8.7 kmh 29.05 in983.7 mb 0.00 in0.0 mm 0.00 in0.0 mm 0.00 in0.0 mm
06:35 PM 34.0°F1.1°C -169.4°F-111.9°C - 0.6 mph N1.0 kmh N 4.0 mph6.4 kmh 29.05 in983.7 mb 0.00 in0.0 mm 0.00 in0.0 mm 0.00 in0.0 mm
06:50 PM 34.0°F1.1°C -169.4°F-111.9°C - 1.4 mph N2.3 kmh N 3.4 mph5.5 kmh 29.03 in983.1 mb 0.00 in0.0 mm 0.00 in0.0 mm 0.00 in0.0 mm
07:05 PM 34.0°F1.1°C -169.4°F-111.9°C - 1.4 mph N2.3 kmh N 4.0 mph6.4 kmh 29.03 in983.1 mb 0.00 in0.0 mm 0.00 in0.0 mm 0.00 in0.0 mm
07:20 PM 33.8°F1.0°C -169.4°F-111.9°C - 0.6 mph N1.0 kmh N 3.4 mph5.5 kmh 29.01 in982.4 mb 0.00 in0.0 mm 0.00 in0.0 mm 0.00 in0.0 mm
07:35 PM 33.6°F0.9°C -169.4°F-111.9°C - Calm Calm 1.4 mph2.3 kmh 29.01 in982.4 mb 0.00 in0.0 mm 0.00 in0.0 mm 0.00 in0.0 mm
07:55 PM 33.4°F0.8°C -169.5°F-111.9°C - 1.4 mph N2.3 kmh N 4.0 mph6.4 kmh 29.00 in982.1 mb 0.00 in0.0 mm 0.00 in0.0 mm 0.00 in0.0 mm
08:05 PM 33.4°F0.8°C -169.5°F-111.9°C - 0.6 mph N1.0 kmh N 4.8 mph7.7 kmh 28.98 in981.4 mb 0.00 in0.0 mm 0.00 in0.0 mm 0.00 in0.0 mm
08:20 PM 33.4°F0.8°C -169.5°F-111.9°C - Calm Calm 2.0 mph3.2 kmh 28.98 in981.4 mb 0.00 in0.0 mm 0.00 in0.0 mm 0.00 in0.0 mm
08:35 PM 33.4°F0.8°C -169.5°F-111.9°C - Calm Calm 2.8 mph4.5 kmh 28.98 in981.4 mb 0.00 in0.0 mm 0.00 in0.0 mm 0.00 in0.0 mm
08:50 PM 33.4°F0.8°C -169.5°F-111.9°C - 2.8 mph N4.5 kmh N 6.2 mph10.0 kmh 28.97 in981.0 mb 0.00 in0.0 mm 0.00 in0.0 mm 0.00 in0.0 mm
09:05 PM 33.6°F0.9°C -169.4°F-111.9°C - 2.8 mph N4.5 kmh N 4.8 mph7.7 kmh 28.98 in981.4 mb 0.00 in0.0 mm 0.00 in0.0 mm 0.00 in0.0 mm
09:20 PM 33.6°F0.9°C -169.4°F-111.9°C - Calm Calm 0.6 mph1.0 kmh 28.98 in981.4 mb 0.00 in0.0 mm 0.00 in0.0 mm 0.00 in0.0 mm
09:35 PM 33.8°F1.0°C -169.4°F-111.9°C - 0.6 mph N1.0 kmh N 4.8 mph7.7 kmh 28.98 in981.4 mb 0.00 in0.0 mm 0.00 in0.0 mm 0.00 in0.0 mm
09:50 PM 33.8°F1.0°C -169.4°F-111.9°C - 2.0 mph N3.2 kmh N 5.4 mph8.7 kmh 28.97 in981.0 mb 0.00 in0.0 mm 0.00 in0.0 mm 0.00 in0.0 mm
10:05 PM 33.8°F1.0°C -169.4°F-111.9°C - Calm Calm 2.8 mph4.5 kmh 28.96 in980.7 mb 0.00 in0.0 mm 0.00 in0.0 mm 0.00 in0.0 mm
10:20 PM 34.0°F1.1°C -169.4°F-111.9°C - Calm Calm 2.0 mph3.2 kmh 28.95 in980.4 mb 0.00 in0.0 mm 0.00 in0.0 mm 0.00 in0.0 mm
10:35 PM 33.8°F1.0°C -169.4°F-111.9°C - 1.4 mph N2.3 kmh N 4.0 mph6.4 kmh 28.94 in980.0 mb 0.00 in0.0 mm 0.00 in0.0 mm 0.00 in0.0 mm
10:50 PM 34.0°F1.1°C -169.4°F-111.9°C - Calm Calm 2.0 mph3.2 kmh 28.94 in980.0 mb 0.00 in0.0 mm 0.00 in0.0 mm 0.00 in0.0 mm
11:05 PM 34.0°F1.1°C -169.4°F-111.9°C - 0.6 mph N1.0 kmh N 2.8 mph4.5 kmh 28.94 in980.0 mb 0.00 in0.0 mm 0.00 in0.0 mm 0.00 in0.0 mm
11:20 PM 33.4°F0.8°C -169.5°F-111.9°C - 1.4 mph N2.3 kmh N 6.8 mph10.9 kmh 28.94 in980.0 mb 0.00 in0.0 mm 0.00 in0.0 mm 0.00 in0.0 mm
11:35 PM 31.8°F-0.1°C -169.6°F-112.0°C - 2.0 mph N3.2 kmh N 6.2 mph10.0 kmh 28.94 in980.0 mb 0.00 in0.0 mm 0.00 in0.0 mm 0.00 in0.0 mm
11:50 PM 32.0°F0.0°C -169.6°F-112.0°C - 0.6 mph N1.0 kmh N 2.8 mph4.5 kmh 28.93 in979.7 mb 0.00 in0.0 mm 0.00 in0.0 mm 0.00 in0.0 mm